sensor_id;sensor_type;location;lat;lon;timestamp;P1;durP1;ratioP1;P2;durP2;ratioP2
55987;SDS011;67216;50.930;4.514;2023-02-26T00:00:03;25.83;;;8.30;;
55987;SDS011;67216;50.930;4.514;2023-02-26T00:02:36;17.45;;;7.10;;
55987;SDS011;67216;50.930;4.514;2023-02-26T00:05:03;14.88;;;6.55;;
55987;SDS011;67216;50.930;4.514;2023-02-26T00:07:32;20.27;;;5.88;;
55987;SDS011;67216;50.930;4.514;2023-02-26T00:09:58;18.42;;;6.28;;
55987;SDS011;67216;50.930;4.514;2023-02-26T00:12:44;27.35;;;7.22;;
55987;SDS011;67216;50.930;4.514;2023-02-26T00:15:11;18.42;;;6.15;;
55987;SDS011;67216;50.930;4.514;2023-02-26T00:20:43;15.90;;;5.35;;
55987;SDS011;67216;50.930;4.514;2023-02-26T00:23:11;14.48;;;5.68;;
55987;SDS011;67216;50.930;4.514;2023-02-26T00:25:40;13.65;;;5.07;;
55987;SDS011;67216;50.930;4.514;2023-02-26T00:28:06;17.27;;;5.88;;
55987;SDS011;67216;50.930;4.514;2023-02-26T00:30:34;14.95;;;5.80;;
55987;SDS011;67216;50.930;4.514;2023-02-26T00:33:00;21.27;;;5.75;;
55987;SDS011;67216;50.930;4.514;2023-02-26T00:35:31;21.95;;;6.15;;
55987;SDS011;67216;50.930;4.514;2023-02-26T00:38:02;19.10;;;6.18;;
55987;SDS011;67216;50.930;4.514;2023-02-26T00:43:16;15.13;;;5.60;;
55987;SDS011;67216;50.930;4.514;2023-02-26T00:45:50;19.30;;;5.75;;
55987;SDS011;67216;50.930;4.514;2023-02-26T00:51:12;19.15;;;5.72;;
55987;SDS011;67216;50.930;4.514;2023-02-26T00:53:56;20.50;;;6.45;;
55987;SDS011;67216;50.930;4.514;2023-02-26T00:56:25;19.70;;;5.43;;
55987;SDS011;67216;50.930;4.514;2023-02-26T00:58:52;19.45;;;5.65;;
55987;SDS011;67216;50.930;4.514;2023-02-26T01:01:17;16.83;;;5.45;;
55987;SDS011;67216;50.930;4.514;2023-02-26T01:03:45;22.40;;;5.85;;
55987;SDS011;67216;50.930;4.514;2023-02-26T01:06:16;24.10;;;5.97;;
55987;SDS011;67216;50.930;4.514;2023-02-26T01:09:02;17.35;;;5.78;;
55987;SDS011;67216;50.930;4.514;2023-02-26T01:11:35;15.98;;;5.25;;
55987;SDS011;67216;50.930;4.514;2023-02-26T01:14:01;18.50;;;6.03;;
55987;SDS011;67216;50.930;4.514;2023-02-26T01:16:29;19.38;;;6.05;;
55987;SDS011;67216;50.930;4.514;2023-02-26T01:19:01;26.30;;;6.85;;
55987;SDS011;67216;50.930;4.514;2023-02-26T01:21:32;18.95;;;6.15;;
55987;SDS011;67216;50.930;4.514;2023-02-26T01:24:02;16.92;;;5.75;;
55987;SDS011;67216;50.930;4.514;2023-02-26T01:26:30;22.70;;;7.40;;
55987;SDS011;67216;50.930;4.514;2023-02-26T01:28:59;24.58;;;6.43;;
55987;SDS011;67216;50.930;4.514;2023-02-26T01:31:41;16.60;;;5.75;;
55987;SDS011;67216;50.930;4.514;2023-02-26T01:37:40;25.13;;;6.20;;
55987;SDS011;67216;50.930;4.514;2023-02-26T01:40:24;19.40;;;5.85;;
55987;SDS011;67216;50.930;4.514;2023-02-26T01:42:53;17.75;;;5.75;;
55987;SDS011;67216;50.930;4.514;2023-02-26T01:45:29;19.40;;;5.35;;
55987;SDS011;67216;50.930;4.514;2023-02-26T01:48:27;19.70;;;5.88;;
55987;SDS011;67216;50.930;4.514;2023-02-26T01:51:08;22.33;;;5.47;;
55987;SDS011;67216;50.930;4.514;2023-02-26T01:53:35;14.27;;;5.55;;
55987;SDS011;67216;50.930;4.514;2023-02-26T01:56:03;22.20;;;5.95;;
55987;SDS011;67216;50.930;4.514;2023-02-26T01:58:39;19.98;;;4.93;;
55987;SDS011;67216;50.930;4.514;2023-02-26T02:01:05;15.30;;;5.22;;
55987;SDS011;67216;50.930;4.514;2023-02-26T02:03:33;16.20;;;5.28;;
55987;SDS011;67216;50.930;4.514;2023-02-26T02:06:03;21.90;;;5.53;;
55987;SDS011;67216;50.930;4.514;2023-02-26T02:08:35;14.30;;;5.05;;
55987;SDS011;67216;50.930;4.514;2023-02-26T02:11:03;14.95;;;4.70;;
55987;SDS011;67216;50.930;4.514;2023-02-26T02:25:19;17.85;;;4.28;;
55987;SDS011;67216;50.930;4.514;2023-02-26T02:27:53;15.75;;;4.38;;
55987;SDS011;67216;50.930;4.514;2023-02-26T02:33:17;17.85;;;4.10;;
55987;SDS011;67216;50.930;4.514;2023-02-26T02:35:51;14.77;;;4.25;;
55987;SDS011;67216;50.930;4.514;2023-02-26T02:38:27;14.20;;;4.50;;
55987;SDS011;67216;50.930;4.514;2023-02-26T02:44:13;10.80;;;3.72;;
55987;SDS011;67216;50.930;4.514;2023-02-26T02:46:45;14.23;;;3.25;;
55987;SDS011;67216;50.930;4.514;2023-02-26T02:49:21;9.23;;;3.30;;
55987;SDS011;67216;50.930;4.514;2023-02-26T02:51:49;16.93;;;3.50;;
55987;SDS011;67216;50.930;4.514;2023-02-26T02:54:23;13.40;;;3.58;;
55987;SDS011;67216;50.930;4.514;2023-02-26T02:57:08;12.13;;;3.08;;
55987;SDS011;67216;50.930;4.514;2023-02-26T02:59:45;11.48;;;3.47;;
55987;SDS011;67216;50.930;4.514;2023-02-26T03:02:36;17.65;;;3.33;;
55987;SDS011;67216;50.930;4.514;2023-02-26T03:05:16;11.25;;;3.33;;
55987;SDS011;67216;50.930;4.514;2023-02-26T03:07:48;18.08;;;3.88;;
55987;SDS011;67216;50.930;4.514;2023-02-26T03:10:18;13.35;;;4.03;;
55987;SDS011;67216;50.930;4.514;2023-02-26T03:12:47;10.63;;;3.35;;
55987;SDS011;67216;50.930;4.514;2023-02-26T03:15:13;17.50;;;4.03;;
55987;SDS011;67216;50.930;4.514;2023-02-26T03:17:50;14.82;;;3.97;;
55987;SDS011;67216;50.930;4.514;2023-02-26T03:20:25;12.75;;;3.63;;
55987;SDS011;67216;50.930;4.514;2023-02-26T03:28:19;11.88;;;3.55;;
55987;SDS011;67216;50.930;4.514;2023-02-26T03:31:02;16.17;;;3.80;;
55987;SDS011;67216;50.930;4.514;2023-02-26T03:36:28;14.48;;;4.15;;
55987;SDS011;67216;50.930;4.514;2023-02-26T03:41:43;14.55;;;4.15;;
55987;SDS011;67216;50.930;4.514;2023-02-26T03:46:59;13.45;;;3.97;;
55987;SDS011;67216;50.930;4.514;2023-02-26T03:49:33;12.23;;;3.70;;
55987;SDS011;67216;50.930;4.514;2023-02-26T03:52:04;11.88;;;4.05;;
55987;SDS011;67216;50.930;4.514;2023-02-26T03:54:32;17.08;;;3.75;;
55987;SDS011;67216;50.930;4.514;2023-02-26T03:57:06;9.52;;;3.10;;
55987;SDS011;67216;50.930;4.514;2023-02-26T03:59:34;10.07;;;3.60;;
55987;SDS011;67216;50.930;4.514;2023-02-26T04:02:04;17.25;;;3.80;;
55987;SDS011;67216;50.930;4.514;2023-02-26T04:04:52;11.40;;;3.38;;
55987;SDS011;67216;50.930;4.514;2023-02-26T04:07:26;13.85;;;3.13;;
55987;SDS011;67216;50.930;4.514;2023-02-26T04:09:53;13.48;;;3.40;;
55987;SDS011;67216;50.930;4.514;2023-02-26T04:12:22;14.40;;;3.13;;
55987;SDS011;67216;50.930;4.514;2023-02-26T04:14:50;23.33;;;4.03;;
55987;SDS011;67216;50.930;4.514;2023-02-26T04:17:16;13.50;;;3.05;;
55987;SDS011;67216;50.930;4.514;2023-02-26T04:19:42;13.93;;;3.42;;
55987;SDS011;67216;50.930;4.514;2023-02-26T04:22:10;18.75;;;3.88;;
55987;SDS011;67216;50.930;4.514;2023-02-26T04:24:36;15.15;;;3.80;;
55987;SDS011;67216;50.930;4.514;2023-02-26T04:27:04;10.55;;;2.88;;
55987;SDS011;67216;50.930;4.514;2023-02-26T04:29:30;11.80;;;3.20;;
55987;SDS011;67216;50.930;4.514;2023-02-26T04:31:57;17.63;;;3.88;;
55987;SDS011;67216;50.930;4.514;2023-02-26T04:34:23;11.18;;;2.90;;
55987;SDS011;67216;50.930;4.514;2023-02-26T04:36:52;8.95;;;2.92;;
55987;SDS011;67216;50.930;4.514;2023-02-26T04:39:17;12.38;;;3.08;;
55987;SDS011;67216;50.930;4.514;2023-02-26T04:41:46;11.40;;;3.00;;
55987;SDS011;67216;50.930;4.514;2023-02-26T04:44:15;9.07;;;2.55;;
55987;SDS011;67216;50.930;4.514;2023-02-26T04:46:41;10.90;;;2.78;;
55987;SDS011;67216;50.930;4.514;2023-02-26T04:49:09;11.57;;;2.80;;
55987;SDS011;67216;50.930;4.514;2023-02-26T04:51:35;11.35;;;3.17;;
55987;SDS011;67216;50.930;4.514;2023-02-26T04:54:01;10.82;;;2.50;;
55987;SDS011;67216;50.930;4.514;2023-02-26T04:56:27;13.05;;;3.35;;
55987;SDS011;67216;50.930;4.514;2023-02-26T04:58:53;7.53;;;2.40;;
55987;SDS011;67216;50.930;4.514;2023-02-26T05:01:19;10.52;;;2.70;;
55987;SDS011;67216;50.930;4.514;2023-02-26T05:03:47;8.45;;;2.50;;
55987;SDS011;67216;50.930;4.514;2023-02-26T05:06:15;10.02;;;2.35;;
55987;SDS011;67216;50.930;4.514;2023-02-26T05:08:41;12.32;;;2.63;;
55987;SDS011;67216;50.930;4.514;2023-02-26T05:11:07;11.60;;;2.50;;
55987;SDS011;67216;50.930;4.514;2023-02-26T05:13:36;8.05;;;2.80;;
55987;SDS011;67216;50.930;4.514;2023-02-26T05:16:02;19.05;;;2.80;;
55987;SDS011;67216;50.930;4.514;2023-02-26T05:18:28;16.88;;;3.10;;
55987;SDS011;67216;50.930;4.514;2023-02-26T05:20:56;13.57;;;3.10;;
55987;SDS011;67216;50.930;4.514;2023-02-26T05:23:22;11.25;;;3.00;;
55987;SDS011;67216;50.930;4.514;2023-02-26T05:25:48;11.35;;;2.85;;
55987;SDS011;67216;50.930;4.514;2023-02-26T05:28:13;13.70;;;2.60;;
55987;SDS011;67216;50.930;4.514;2023-02-26T05:30:40;10.13;;;2.85;;
55987;SDS011;67216;50.930;4.514;2023-02-26T05:33:09;7.43;;;2.70;;
55987;SDS011;67216;50.930;4.514;2023-02-26T05:35:34;17.40;;;2.85;;
55987;SDS011;67216;50.930;4.514;2023-02-26T05:38:02;15.38;;;2.83;;
55987;SDS011;67216;50.930;4.514;2023-02-26T05:40:28;10.32;;;2.60;;
55987;SDS011;67216;50.930;4.514;2023-02-26T05:42:54;12.55;;;2.78;;
55987;SDS011;67216;50.930;4.514;2023-02-26T05:45:20;15.77;;;2.88;;
55987;SDS011;67216;50.930;4.514;2023-02-26T05:47:51;10.38;;;2.60;;
55987;SDS011;67216;50.930;4.514;2023-02-26T05:50:17;12.05;;;2.72;;
55987;SDS011;67216;50.930;4.514;2023-02-26T05:52:43;10.30;;;2.42;;
55987;SDS011;67216;50.930;4.514;2023-02-26T05:55:08;11.40;;;2.30;;
55987;SDS011;67216;50.930;4.514;2023-02-26T05:57:34;6.70;;;2.60;;
55987;SDS011;67216;50.930;4.514;2023-02-26T06:00:03;10.32;;;2.53;;
55987;SDS011;67216;50.930;4.514;2023-02-26T06:02:33;7.80;;;2.25;;
55987;SDS011;67216;50.930;4.514;2023-02-26T06:05:00;14.20;;;3.72;;
55987;SDS011;67216;50.930;4.514;2023-02-26T06:07:26;8.68;;;2.67;;
55987;SDS011;67216;50.930;4.514;2023-02-26T06:09:52;11.05;;;2.40;;
55987;SDS011;67216;50.930;4.514;2023-02-26T06:12:18;12.13;;;2.50;;
55987;SDS011;67216;50.930;4.514;2023-02-26T06:14:49;11.85;;;2.47;;
55987;SDS011;67216;50.930;4.514;2023-02-26T06:17:15;10.07;;;2.60;;
55987;SDS011;67216;50.930;4.514;2023-02-26T06:19:41;9.65;;;2.33;;
55987;SDS011;67216;50.930;4.514;2023-02-26T06:22:07;8.75;;;2.60;;
55987;SDS011;67216;50.930;4.514;2023-02-26T06:24:33;12.65;;;3.08;;
55987;SDS011;67216;50.930;4.514;2023-02-26T06:27:00;11.00;;;2.60;;
55987;SDS011;67216;50.930;4.514;2023-02-26T06:29:28;14.00;;;2.20;;
55987;SDS011;67216;50.930;4.514;2023-02-26T06:31:56;13.93;;;2.30;;
55987;SDS011;67216;50.930;4.514;2023-02-26T06:34:21;17.75;;;2.65;;
55987;SDS011;67216;50.930;4.514;2023-02-26T06:36:47;10.80;;;2.38;;
55987;SDS011;67216;50.930;4.514;2023-02-26T06:39:15;14.95;;;2.88;;
55987;SDS011;67216;50.930;4.514;2023-02-26T06:41:44;10.68;;;2.22;;
55987;SDS011;67216;50.930;4.514;2023-02-26T06:44:10;8.85;;;1.98;;
55987;SDS011;67216;50.930;4.514;2023-02-26T06:46:36;10.77;;;2.33;;
55987;SDS011;67216;50.930;4.514;2023-02-26T06:49:02;8.25;;;2.08;;
55987;SDS011;67216;50.930;4.514;2023-02-26T06:51:28;8.50;;;2.25;;
55987;SDS011;67216;50.930;4.514;2023-02-26T06:53:57;8.13;;;2.25;;
55987;SDS011;67216;50.930;4.514;2023-02-26T06:56:24;8.18;;;1.90;;
55987;SDS011;67216;50.930;4.514;2023-02-26T06:58:51;6.47;;;1.95;;
55987;SDS011;67216;50.930;4.514;2023-02-26T07:01:17;14.05;;;2.30;;
55987;SDS011;67216;50.930;4.514;2023-02-26T07:03:43;9.40;;;2.05;;
55987;SDS011;67216;50.930;4.514;2023-02-26T07:06:12;12.85;;;2.20;;
55987;SDS011;67216;50.930;4.514;2023-02-26T07:08:38;7.50;;;1.83;;
55987;SDS011;67216;50.930;4.514;2023-02-26T07:11:04;7.93;;;1.67;;
55987;SDS011;67216;50.930;4.514;2023-02-26T07:13:33;10.55;;;1.60;;
55987;SDS011;67216;50.930;4.514;2023-02-26T07:15:58;15.23;;;2.10;;
55987;SDS011;67216;50.930;4.514;2023-02-26T07:18:24;6.55;;;1.52;;
55987;SDS011;67216;50.930;4.514;2023-02-26T07:20:49;8.00;;;1.90;;
55987;SDS011;67216;50.930;4.514;2023-02-26T07:23:16;8.43;;;2.33;;
55987;SDS011;67216;50.930;4.514;2023-02-26T07:25:41;7.78;;;1.85;;
55987;SDS011;67216;50.930;4.514;2023-02-26T07:28:10;4.85;;;1.70;;
55987;SDS011;67216;50.930;4.514;2023-02-26T07:30:36;10.02;;;1.63;;
55987;SDS011;67216;50.930;4.514;2023-02-26T07:33:06;7.70;;;1.98;;
55987;SDS011;67216;50.930;4.514;2023-02-26T07:35:31;11.05;;;1.58;;
55987;SDS011;67216;50.930;4.514;2023-02-26T07:37:57;5.80;;;1.65;;
55987;SDS011;67216;50.930;4.514;2023-02-26T07:40:26;8.77;;;1.77;;
55987;SDS011;67216;50.930;4.514;2023-02-26T07:42:55;6.63;;;1.80;;
55987;SDS011;67216;50.930;4.514;2023-02-26T07:45:21;8.77;;;1.90;;
55987;SDS011;67216;50.930;4.514;2023-02-26T07:47:50;6.25;;;1.92;;
55987;SDS011;67216;50.930;4.514;2023-02-26T07:50:17;5.43;;;1.80;;
55987;SDS011;67216;50.930;4.514;2023-02-26T07:52:45;9.75;;;2.00;;
55987;SDS011;67216;50.930;4.514;2023-02-26T07:55:11;7.43;;;1.80;;
55987;SDS011;67216;50.930;4.514;2023-02-26T07:57:38;6.15;;;1.73;;
55987;SDS011;67216;50.930;4.514;2023-02-26T08:00:09;7.63;;;1.65;;
55987;SDS011;67216;50.930;4.514;2023-02-26T08:02:35;7.07;;;2.08;;
55987;SDS011;67216;50.930;4.514;2023-02-26T08:05:02;8.15;;;1.73;;
55987;SDS011;67216;50.930;4.514;2023-02-26T08:07:30;11.10;;;2.20;;
55987;SDS011;67216;50.930;4.514;2023-02-26T08:09:56;10.35;;;1.73;;
55987;SDS011;67216;50.930;4.514;2023-02-26T08:12:21;6.53;;;1.77;;
55987;SDS011;67216;50.930;4.514;2023-02-26T08:14:48;7.25;;;1.88;;
55987;SDS011;67216;50.930;4.514;2023-02-26T08:17:14;6.47;;;1.83;;
55987;SDS011;67216;50.930;4.514;2023-02-26T08:19:39;8.93;;;1.50;;
55987;SDS011;67216;50.930;4.514;2023-02-26T08:22:05;11.90;;;2.08;;
55987;SDS011;67216;50.930;4.514;2023-02-26T08:24:31;9.60;;;1.98;;
55987;SDS011;67216;50.930;4.514;2023-02-26T08:26:58;5.85;;;1.80;;
55987;SDS011;67216;50.930;4.514;2023-02-26T08:29:24;8.20;;;1.58;;
55987;SDS011;67216;50.930;4.514;2023-02-26T08:31:50;5.40;;;1.60;;
55987;SDS011;67216;50.930;4.514;2023-02-26T08:34:19;7.28;;;1.70;;
55987;SDS011;67216;50.930;4.514;2023-02-26T08:36:47;5.72;;;1.80;;
55987;SDS011;67216;50.930;4.514;2023-02-26T08:39:15;7.40;;;1.80;;
55987;SDS011;67216;50.930;4.514;2023-02-26T08:41:46;7.63;;;1.50;;
55987;SDS011;67216;50.930;4.514;2023-02-26T08:44:11;5.95;;;2.03;;
55987;SDS011;67216;50.930;4.514;2023-02-26T08:46:38;7.25;;;1.48;;
55987;SDS011;67216;50.930;4.514;2023-02-26T08:49:04;7.38;;;1.65;;
55987;SDS011;67216;50.930;4.514;2023-02-26T08:51:33;6.40;;;1.93;;
55987;SDS011;67216;50.930;4.514;2023-02-26T08:53:58;5.60;;;2.00;;
55987;SDS011;67216;50.930;4.514;2023-02-26T08:56:24;7.68;;;2.10;;
55987;SDS011;67216;50.930;4.514;2023-02-26T08:58:51;8.90;;;1.83;;
55987;SDS011;67216;50.930;4.514;2023-02-26T09:01:16;5.43;;;2.20;;
55987;SDS011;67216;50.930;4.514;2023-02-26T09:03:44;9.55;;;1.98;;
55987;SDS011;67216;50.930;4.514;2023-02-26T09:06:10;4.45;;;1.40;;
55987;SDS011;67216;50.930;4.514;2023-02-26T09:08:39;6.88;;;1.60;;
55987;SDS011;67216;50.930;4.514;2023-02-26T09:11:05;6.85;;;1.42;;
55987;SDS011;67216;50.930;4.514;2023-02-26T09:13:30;10.73;;;1.63;;
55987;SDS011;67216;50.930;4.514;2023-02-26T09:15:57;5.85;;;1.58;;
55987;SDS011;67216;50.930;4.514;2023-02-26T09:18:25;10.05;;;1.80;;
55987;SDS011;67216;50.930;4.514;2023-02-26T09:20:53;4.38;;;1.35;;
55987;SDS011;67216;50.930;4.514;2023-02-26T09:23:19;4.82;;;1.10;;
55987;SDS011;67216;50.930;4.514;2023-02-26T09:25:45;5.25;;;1.33;;
55987;SDS011;67216;50.930;4.514;2023-02-26T09:28:11;5.82;;;1.13;;
55987;SDS011;67216;50.930;4.514;2023-02-26T09:30:37;4.45;;;1.30;;
55987;SDS011;67216;50.930;4.514;2023-02-26T09:33:03;8.02;;;1.52;;
55987;SDS011;67216;50.930;4.514;2023-02-26T09:35:29;4.95;;;1.23;;
55987;SDS011;67216;50.930;4.514;2023-02-26T09:37:54;4.88;;;1.33;;
55987;SDS011;67216;50.930;4.514;2023-02-26T09:43:34;10.05;;;1.90;;
55987;SDS011;67216;50.930;4.514;2023-02-26T09:46:25;4.90;;;1.52;;
55987;SDS011;67216;50.930;4.514;2023-02-26T09:48:53;4.93;;;1.08;;
55987;SDS011;67216;50.930;4.514;2023-02-26T09:51:29;6.70;;;1.40;;
55987;SDS011;67216;50.930;4.514;2023-02-26T09:53:58;8.10;;;1.73;;
55987;SDS011;67216;50.930;4.514;2023-02-26T09:56:28;6.40;;;1.60;;
55987;SDS011;67216;50.930;4.514;2023-02-26T09:59:00;5.65;;;1.42;;
55987;SDS011;67216;50.930;4.514;2023-02-26T10:01:42;6.45;;;1.40;;
55987;SDS011;67216;50.930;4.514;2023-02-26T10:09:58;4.57;;;1.23;;
55987;SDS011;67216;50.930;4.514;2023-02-26T10:12:35;5.85;;;1.10;;
55987;SDS011;67216;50.930;4.514;2023-02-26T10:15:12;8.32;;;1.30;;
55987;SDS011;67216;50.930;4.514;2023-02-26T10:18:05;12.07;;;1.27;;
55987;SDS011;67216;50.930;4.514;2023-02-26T10:26:22;6.05;;;1.13;;
55987;SDS011;67216;50.930;4.514;2023-02-26T10:32:14;3.83;;;1.08;;
55987;SDS011;67216;50.930;4.514;2023-02-26T10:34:55;4.82;;;1.00;;
55987;SDS011;67216;50.930;4.514;2023-02-26T10:37:35;4.65;;;0.93;;
55987;SDS011;67216;50.930;4.514;2023-02-26T10:40:26;3.20;;;0.90;;
55987;SDS011;67216;50.930;4.514;2023-02-26T10:42:59;5.30;;;1.05;;
55987;SDS011;67216;50.930;4.514;2023-02-26T10:50:56;2.40;;;0.75;;
55987;SDS011;67216;50.930;4.514;2023-02-26T10:53:25;3.65;;;1.52;;
55987;SDS011;67216;50.930;4.514;2023-02-26T10:56:01;3.78;;;0.70;;
55987;SDS011;67216;50.930;4.514;2023-02-26T10:58:36;4.70;;;0.80;;
55987;SDS011;67216;50.930;4.514;2023-02-26T11:01:03;3.80;;;0.82;;
55987;SDS011;67216;50.930;4.514;2023-02-26T11:03:39;6.07;;;0.80;;
55987;SDS011;67216;50.930;4.514;2023-02-26T11:06:07;4.78;;;1.13;;
55987;SDS011;67216;50.930;4.514;2023-02-26T11:08:44;4.20;;;1.15;;
55987;SDS011;67216;50.930;4.514;2023-02-26T11:11:34;5.28;;;0.80;;
55987;SDS011;67216;50.930;4.514;2023-02-26T11:14:00;5.93;;;1.33;;
55987;SDS011;67216;50.930;4.514;2023-02-26T11:16:26;3.67;;;1.20;;
55987;SDS011;67216;50.930;4.514;2023-02-26T11:18:53;4.55;;;1.27;;
55987;SDS011;67216;50.930;4.514;2023-02-26T11:21:26;3.15;;;0.95;;
55987;SDS011;67216;50.930;4.514;2023-02-26T11:23:57;3.72;;;1.40;;
55987;SDS011;67216;50.930;4.514;2023-02-26T11:26:31;3.80;;;0.82;;
55987;SDS011;67216;50.930;4.514;2023-02-26T11:29:00;5.07;;;0.98;;
55987;SDS011;67216;50.930;4.514;2023-02-26T11:31:26;4.50;;;1.10;;
55987;SDS011;67216;50.930;4.514;2023-02-26T11:33:58;4.28;;;0.80;;
55987;SDS011;67216;50.930;4.514;2023-02-26T11:36:30;3.38;;;0.80;;
55987;SDS011;67216;50.930;4.514;2023-02-26T11:39:02;2.90;;;0.85;;
55987;SDS011;67216;50.930;4.514;2023-02-26T11:41:38;4.57;;;0.85;;
55987;SDS011;67216;50.930;4.514;2023-02-26T11:44:12;3.60;;;0.63;;
55987;SDS011;67216;50.930;4.514;2023-02-26T11:46:49;4.38;;;1.05;;
55987;SDS011;67216;50.930;4.514;2023-02-26T11:49:19;5.72;;;0.93;;
55987;SDS011;67216;50.930;4.514;2023-02-26T11:54:35;2.85;;;0.93;;
55987;SDS011;67216;50.930;4.514;2023-02-26T11:57:06;2.28;;;0.80;;
55987;SDS011;67216;50.930;4.514;2023-02-26T11:59:59;4.15;;;1.00;;
55987;SDS011;67216;50.930;4.514;2023-02-26T12:02:44;3.70;;;1.30;;
55987;SDS011;67216;50.930;4.514;2023-02-26T12:05:10;2.58;;;0.90;;
55987;SDS011;67216;50.930;4.514;2023-02-26T12:07:40;4.88;;;1.30;;
55987;SDS011;67216;50.930;4.514;2023-02-26T12:10:13;4.65;;;1.17;;
55987;SDS011;67216;50.930;4.514;2023-02-26T12:12:52;6.75;;;1.30;;
55987;SDS011;67216;50.930;4.514;2023-02-26T12:15:41;2.88;;;0.93;;
55987;SDS011;67216;50.930;4.514;2023-02-26T12:26:31;4.13;;;1.13;;
55987;SDS011;67216;50.930;4.514;2023-02-26T12:43:56;3.50;;;1.00;;
55987;SDS011;67216;50.930;4.514;2023-02-26T12:46:33;3.97;;;0.90;;
55987;SDS011;67216;50.930;4.514;2023-02-26T12:56:47;4.28;;;1.10;;
55987;SDS011;67216;50.930;4.514;2023-02-26T13:02:06;3.00;;;1.00;;
55987;SDS011;67216;50.930;4.514;2023-02-26T13:12:50;5.05;;;0.70;;
55987;SDS011;67216;50.930;4.514;2023-02-26T13:18:30;2.15;;;0.60;;
55987;SDS011;67216;50.930;4.514;2023-02-26T13:23:50;4.55;;;1.00;;
55987;SDS011;67216;50.930;4.514;2023-02-26T13:26:17;7.20;;;1.42;;
55987;SDS011;67216;50.930;4.514;2023-02-26T13:29:28;5.78;;;1.10;;
55987;SDS011;67216;50.930;4.514;2023-02-26T13:34:58;3.40;;;0.98;;
55987;SDS011;67216;50.930;4.514;2023-02-26T13:37:37;4.07;;;0.90;;
55987;SDS011;67216;50.930;4.514;2023-02-26T13:43:03;2.88;;;1.30;;
55987;SDS011;67216;50.930;4.514;2023-02-26T13:48:10;5.03;;;1.17;;
55987;SDS011;67216;50.930;4.514;2023-02-26T13:50:56;4.32;;;1.00;;
55987;SDS011;67216;50.930;4.514;2023-02-26T13:53:34;2.53;;;1.20;;
55987;SDS011;67216;50.930;4.514;2023-02-26T13:56:22;3.63;;;1.00;;
55987;SDS011;67216;50.930;4.514;2023-02-26T14:04:27;3.38;;;1.10;;
55987;SDS011;67216;50.930;4.514;2023-02-26T14:07:15;1.35;;;0.80;;
55987;SDS011;67216;50.930;4.514;2023-02-26T14:10:12;2.55;;;1.30;;
55987;SDS011;67216;50.930;4.514;2023-02-26T14:13:13;3.67;;;1.42;;
55987;SDS011;67216;50.930;4.514;2023-02-26T14:15:52;5.18;;;0.90;;
55987;SDS011;67216;50.930;4.514;2023-02-26T14:21:26;4.30;;;1.13;;
55987;SDS011;67216;50.930;4.514;2023-02-26T14:32:31;1.77;;;0.85;;
55987;SDS011;67216;50.930;4.514;2023-02-26T14:35:04;3.20;;;1.10;;
55987;SDS011;67216;50.930;4.514;2023-02-26T14:37:36;2.22;;;0.95;;
55987;SDS011;67216;50.930;4.514;2023-02-26T14:42:40;3.78;;;1.00;;
55987;SDS011;67216;50.930;4.514;2023-02-26T14:47:45;3.45;;;0.70;;
55987;SDS011;67216;50.930;4.514;2023-02-26T14:50:17;4.10;;;0.93;;
55987;SDS011;67216;50.930;4.514;2023-02-26T14:55:30;5.18;;;1.33;;
55987;SDS011;67216;50.930;4.514;2023-02-26T15:12:11;3.33;;;1.05;;
55987;SDS011;67216;50.930;4.514;2023-02-26T15:25:41;5.43;;;1.75;;
55987;SDS011;67216;50.930;4.514;2023-02-26T15:28:12;3.55;;;1.20;;
55987;SDS011;67216;50.930;4.514;2023-02-26T15:31:00;2.55;;;0.88;;
55987;SDS011;67216;50.930;4.514;2023-02-26T15:33:27;3.55;;;1.10;;
55987;SDS011;67216;50.930;4.514;2023-02-26T15:35:55;4.25;;;1.25;;
55987;SDS011;67216;50.930;4.514;2023-02-26T15:38:22;9.52;;;1.13;;
55987;SDS011;67216;50.930;4.514;2023-02-26T15:40:53;4.40;;;0.90;;
55987;SDS011;67216;50.930;4.514;2023-02-26T15:43:27;4.95;;;1.10;;
55987;SDS011;67216;50.930;4.514;2023-02-26T15:45:54;3.40;;;1.30;;
55987;SDS011;67216;50.930;4.514;2023-02-26T15:48:33;6.50;;;1.70;;
55987;SDS011;67216;50.930;4.514;2023-02-26T15:51:08;4.97;;;1.20;;
55987;SDS011;67216;50.930;4.514;2023-02-26T15:53:40;4.22;;;1.10;;
55987;SDS011;67216;50.930;4.514;2023-02-26T15:56:11;3.22;;;1.20;;
55987;SDS011;67216;50.930;4.514;2023-02-26T15:58:45;6.00;;;1.38;;
55987;SDS011;67216;50.930;4.514;2023-02-26T16:01:17;3.30;;;1.30;;
55987;SDS011;67216;50.930;4.514;2023-02-26T16:03:51;5.70;;;1.48;;
55987;SDS011;67216;50.930;4.514;2023-02-26T16:06:27;5.22;;;1.48;;
55987;SDS011;67216;50.930;4.514;2023-02-26T16:08:58;3.25;;;1.17;;
55987;SDS011;67216;50.930;4.514;2023-02-26T16:11:27;6.07;;;1.08;;
55987;SDS011;67216;50.930;4.514;2023-02-26T16:13:59;4.25;;;1.05;;
55987;SDS011;67216;50.930;4.514;2023-02-26T16:16:27;3.00;;;1.20;;
55987;SDS011;67216;50.930;4.514;2023-02-26T16:19:08;2.20;;;1.30;;
55987;SDS011;67216;50.930;4.514;2023-02-26T16:22:01;3.05;;;1.17;;
55987;SDS011;67216;50.930;4.514;2023-02-26T16:24:32;5.45;;;1.90;;
55987;SDS011;67216;50.930;4.514;2023-02-26T16:27:02;3.97;;;1.40;;
55987;SDS011;67216;50.930;4.514;2023-02-26T16:29:32;4.05;;;1.30;;
55987;SDS011;67216;50.930;4.514;2023-02-26T16:32:01;6.00;;;1.10;;
55987;SDS011;67216;50.930;4.514;2023-02-26T16:37:00;6.22;;;1.25;;
55987;SDS011;67216;50.930;4.514;2023-02-26T16:39:43;5.25;;;1.50;;
55987;SDS011;67216;50.930;4.514;2023-02-26T16:42:15;4.55;;;2.05;;
55987;SDS011;67216;50.930;4.514;2023-02-26T16:44:50;7.95;;;2.65;;
55987;SDS011;67216;50.930;4.514;2023-02-26T16:47:27;6.10;;;1.20;;
55987;SDS011;67216;50.930;4.514;2023-02-26T16:49:57;5.90;;;1.63;;
55987;SDS011;67216;50.930;4.514;2023-02-26T16:52:25;2.50;;;1.30;;
55987;SDS011;67216;50.930;4.514;2023-02-26T16:54:53;4.10;;;1.88;;
55987;SDS011;67216;50.930;4.514;2023-02-26T16:57:28;5.53;;;1.50;;
55987;SDS011;67216;50.930;4.514;2023-02-26T17:00:17;5.85;;;1.30;;
55987;SDS011;67216;50.930;4.514;2023-02-26T17:02:53;4.95;;;1.40;;
55987;SDS011;67216;50.930;4.514;2023-02-26T17:05:25;5.38;;;1.60;;
55987;SDS011;67216;50.930;4.514;2023-02-26T17:07:54;4.95;;;1.65;;
55987;SDS011;67216;50.930;4.514;2023-02-26T17:10:54;3.85;;;1.58;;
55987;SDS011;67216;50.930;4.514;2023-02-26T17:13:25;4.40;;;1.42;;
55987;SDS011;67216;50.930;4.514;2023-02-26T17:15:57;3.45;;;1.60;;
55987;SDS011;67216;50.930;4.514;2023-02-26T17:18:25;5.22;;;1.98;;
55987;SDS011;67216;50.930;4.514;2023-02-26T17:20:51;3.65;;;1.33;;
55987;SDS011;67216;50.930;4.514;2023-02-26T17:23:17;4.47;;;1.45;;
55987;SDS011;67216;50.930;4.514;2023-02-26T17:25:47;4.22;;;1.80;;
55987;SDS011;67216;50.930;4.514;2023-02-26T17:28:25;3.17;;;1.27;;
55987;SDS011;67216;50.930;4.514;2023-02-26T17:30:53;4.85;;;1.48;;
55987;SDS011;67216;50.930;4.514;2023-02-26T17:33:19;5.10;;;1.83;;
55987;SDS011;67216;50.930;4.514;2023-02-26T17:35:46;4.80;;;1.67;;
55987;SDS011;67216;50.930;4.514;2023-02-26T17:38:13;6.85;;;2.08;;
55987;SDS011;67216;50.930;4.514;2023-02-26T17:40:40;7.07;;;2.40;;
55987;SDS011;67216;50.930;4.514;2023-02-26T17:43:08;9.50;;;2.50;;
55987;SDS011;67216;50.930;4.514;2023-02-26T17:45:35;4.80;;;2.42;;
55987;SDS011;67216;50.930;4.514;2023-02-26T17:48:03;4.78;;;2.45;;
55987;SDS011;67216;50.930;4.514;2023-02-26T17:53:15;6.60;;;2.92;;
55987;SDS011;67216;50.930;4.514;2023-02-26T17:55:43;6.20;;;2.03;;
55987;SDS011;67216;50.930;4.514;2023-02-26T17:58:15;4.35;;;1.95;;
55987;SDS011;67216;50.930;4.514;2023-02-26T18:00:43;6.43;;;2.45;;
55987;SDS011;67216;50.930;4.514;2023-02-26T18:03:13;7.57;;;2.97;;
55987;SDS011;67216;50.930;4.514;2023-02-26T18:05:42;11.48;;;4.68;;